Main page
METAR-TAF:

METAR-TAF

Airports :

Matamoros International Airport

Matamoros, Mexico

latitude: 25-46N, longitude: 097-32W, elevation: 26 ft

Current weather observation

The report was made 1 hour and 20 minutes ago, at 16:40 UTC
Wind 5 mph from the East
Temperature 93°F
Humidity 56%
Pressure 29.91 in. Hg
Visibility: 10 miles
Broken clouds at a height of 2500 ft, Towering cumulus.

METAR: MMMA 141640Z 09004KT 10SM BKN025TCU 34/24 A2991 RMK 8/200

Time: 13:00 (18:00 UTC)

Forecast

The report was made 45 minutes ago, at 17:15 UTC
Forecast valid from 14 at 18 UTC to 15 at 18 UTC
Wind 12 mph from the East/Southeast with gusts up to 23 mph
Visibility: 6 miles
Broken clouds at a height of 2500 ft
From 15 at 0300 UTC
Wind 12 mph from the Southeast
Visibility: 6 miles
Broken clouds at a height of 1500 ft
haze
Temporary
from 15 at 12 UTC to 15 at 15 UTC
Visibility: 3 miles
Broken clouds at a height of 1000 ft
haze,

TAF: MMMA 141715Z 1418/1518 12010G20KT P6SM BKN025 FM150300 13010KT 6SM HZ BKN015 TEMPO 1512/1515 3SM HZ BKN010

Weather observations and forecasts of more than 4000 airports (METAR and TAF reports).

The available stations are represented by yellow and red dots on the map.

Hover mouse over dot to see the name of the station.

Then click to see weather observations and forecasts.

To change the map : click on the green buttons with a black cross to zoom in, on the green button with a dash to zoom out, or on the green arrows for adjacent maps.


METAR-TAF: